Time;durP1;ratioP1;P1;durP2;ratioP2;P2;SDS_P1;SDS_P2;PMS_P1;PMS_P2;Temp;Humidity;BMP_temperature;BMP_pressure;BME280_temperature;BME280_humidity;BME280_pressure;Samples;Min_cycle;Max_cycle;Signal;HPM_P1;HPM_P2
2021/10/22 00:01:55;;;;;;;0.10;0.10;;;11.60;81.10;;;;;;5054167;28;20028;-72
2021/10/22 00:04:21;;;;;;;0.10;0.10;;;11.60;81.40;;;;;;5054267;28;20036;-72
2021/10/22 00:06:47;;;;;;;0.10;0.10;;;11.70;81.40;;;;;;5052773;28;20079;-72
2021/10/22 00:09:12;;;;;;;0.25;0.25;;;11.70;80.70;;;;;;5054126;28;20029;-72
2021/10/22 00:11:43;;;;;;;0.20;0.20;;;11.80;80.90;;;;;;5054058;28;20387;-72
2021/10/22 00:14:10;;;;;;;0.40;0.20;;;11.70;80.90;;;;;;5052722;28;20025;-72
2021/10/22 00:16:36;;;;;;;0.22;0.22;;;11.60;81.10;;;;;;5053856;28;20021;-72
2021/10/22 00:19:03;;;;;;;0.10;0.10;;;11.70;81.20;;;;;;5053916;28;20109;-72
2021/10/22 00:21:28;;;;;;;0.10;0.10;;;11.60;81.30;;;;;;5053981;28;20040;-72
2021/10/22 00:23:54;;;;;;;0.10;0.10;;;11.60;81.20;;;;;;5052677;28;20388;-72
2021/10/22 00:26:20;;;;;;;0.10;0.10;;;11.60;81.30;;;;;;5052546;28;20383;-71
2021/10/22 00:28:46;;;;;;;0.20;0.20;;;11.60;81.30;;;;;;5052385;28;20558;-72
2021/10/22 00:31:11;;;;;;;0.10;0.10;;;11.60;80.80;;;;;;5053586;28;20028;-71
2021/10/22 00:33:38;;;;;;;0.20;0.20;;;11.60;81.20;;;;;;5053695;28;20017;-72
2021/10/22 00:36:06;;;;;;;2.78;0.20;;;11.60;81.20;;;;;;5053385;28;20024;-72
2021/10/22 00:38:32;;;;;;;0.17;0.17;;;11.70;81.40;;;;;;5053560;28;20021;-72
2021/10/22 00:40:58;;;;;;;0.47;0.22;;;11.60;81.50;;;;;;5053589;28;20083;-71
2021/10/22 00:43:28;;;;;;;0.20;0.20;;;11.50;81.60;;;;;;5052241;28;20021;-72
2021/10/22 00:45:54;;;;;;;0.17;0.17;;;11.50;82.20;;;;;;5053343;28;20087;-72
2021/10/22 00:48:19;;;;;;;0.10;0.10;;;11.50;82.50;;;;;;5053369;28;20021;-72
2021/10/22 00:50:50;;;;;;;0.20;0.20;;;11.50;82.60;;;;;;5053319;28;20067;-72
2021/10/22 00:53:17;;;;;;;0.10;0.10;;;11.50;82.80;;;;;;5053341;28;20083;-72
2021/10/22 00:55:43;;;;;;;2.95;2.17;;;11.50;83.00;;;;;;5053120;28;20029;-72
2021/10/22 00:58:11;;;;;;;0.10;0.10;;;11.50;83.10;;;;;;5051737;28;20021;-72
2021/10/22 01:00:37;;;;;;;0.20;0.20;;;11.50;83.20;;;;;;5053217;28;20380;-72
2021/10/22 01:03:06;;;;;;;0.17;0.17;;;11.40;83.40;;;;;;5053145;28;20036;-72
2021/10/22 01:05:32;;;;;;;0.20;0.20;;;11.40;84.00;;;;;;5035096;28;20063;-72
2021/10/22 01:07:58;;;;;;;0.10;0.10;;;11.40;84.10;;;;;;5052997;28;20059;-72
2021/10/22 01:10:24;;;;;;;0.20;0.20;;;11.40;84.50;;;;;;5052306;28;20072;-72
2021/10/22 01:12:50;;;;;;;0.20;0.20;;;11.40;84.90;;;;;;5052852;28;20024;-72
2021/10/22 01:15:16;;;;;;;0.20;0.20;;;11.40;86.00;;;;;;5052732;28;20459;-72
2021/10/22 01:17:45;;;;;;;0.13;0.13;;;11.40;88.90;;;;;;5052952;28;20053;-72
2021/10/22 01:20:17;;;;;;;0.35;0.35;;;11.50;90.10;;;;;;5052768;28;20032;-72
2021/10/22 01:22:44;;;;;;;0.20;0.20;;;11.30;90.60;;;;;;5052794;28;20052;-72
2021/10/22 01:25:13;;;;;;;0.17;0.17;;;11.10;91.90;;;;;;5052482;28;20033;-72
2021/10/22 01:27:39;;;;;;;0.20;0.20;;;11.00;92.60;;;;;;5052637;28;20028;-72
2021/10/22 01:30:07;;;;;;;0.10;0.10;;;11.00;93.50;;;;;;5052550;28;20029;-72
2021/10/22 01:32:33;;;;;;;0.20;0.20;;;11.00;93.90;;;;;;5052567;28;20394;-72
2021/10/22 01:34:59;;;;;;;0.10;0.10;;;11.10;94.90;;;;;;5052420;28;20028;-72
2021/10/22 01:37:25;;;;;;;0.10;0.10;;;11.20;95.00;;;;;;5052388;28;20519;-72
2021/10/22 01:39:50;;;;;;;0.17;0.17;;;11.00;95.20;;;;;;5052348;28;20417;-72
2021/10/22 01:42:16;;;;;;;0.20;0.20;;;10.90;97.10;;;;;;5052406;28;20028;-72
2021/10/22 01:44:43;;;;;;;0.10;0.10;;;10.90;98.80;;;;;;5050890;28;20117;-72
2021/10/22 01:47:09;;;;;;;0.20;0.20;;;10.70;99.90;;;;;;5051110;28;20048;-72
2021/10/22 01:49:35;;;;;;;0.13;0.13;;;10.70;99.90;;;;;;5052283;28;20104;-72
2021/10/22 01:52:00;;;;;;;0.10;0.10;;;10.60;99.90;;;;;;5052110;28;20108;-72
2021/10/22 01:54:27;;;;;;;0.20;0.20;;;10.40;99.90;;;;;;5051985;28;20052;-72
2021/10/22 01:56:53;;;;;;;0.40;0.40;;;10.40;99.90;;;;;;5052092;28;20473;-71
2021/10/22 01:59:18;;;;;;;1.08;0.35;;;10.40;99.90;;;;;;5051986;28;20025;-72
2021/10/22 02:01:44;;;;;;;0.30;0.30;;;10.20;99.90;;;;;;5052124;28;20071;-71
2021/10/22 02:04:10;;;;;;;1.25;0.68;;;10.10;99.90;;;;;;5051928;28;20074;-72
2021/10/22 02:06:36;;;;;;;10.77;1.13;;;10.20;99.90;;;;;;5051896;28;20112;-72
2021/10/22 02:09:02;;;;;;;0.10;0.10;;;10.20;99.90;;;;;;5050763;28;20036;-72
2021/10/22 02:11:28;;;;;;;0.20;0.20;;;10.10;99.90;;;;;;5051870;28;20388;-72
2021/10/22 02:13:55;;;;;;;0.30;0.30;;;10.20;99.90;;;;;;5050710;28;20104;-72
2021/10/22 02:16:20;;;;;;;0.20;0.20;;;10.40;99.90;;;;;;5051711;28;20021;-71
2021/10/22 02:18:46;;;;;;;0.20;0.20;;;10.30;99.90;;;;;;5051808;28;20017;-72
2021/10/22 02:21:12;;;;;;;0.20;0.20;;;10.30;99.90;;;;;;5051117;28;20028;-72
2021/10/22 02:23:38;;;;;;;0.20;0.20;;;10.30;99.90;;;;;;5051911;28;20032;-72
2021/10/22 02:26:04;;;;;;;0.20;0.20;;;10.50;99.90;;;;;;5050302;28;20017;-72
2021/10/22 02:28:29;;;;;;;0.32;0.32;;;10.50;99.90;;;;;;5051665;28;20025;-72
2021/10/22 02:30:55;;;;;;;0.20;0.20;;;10.70;99.90;;;;;;5051646;28;20025;-72
2021/10/22 02:33:22;;;;;;;0.20;0.20;;;10.50;99.90;;;;;;5051708;28;20473;-72
2021/10/22 02:35:47;;;;;;;0.20;0.20;;;10.60;99.90;;;;;;5051353;28;20370;-72
2021/10/22 02:38:13;;;;;;;0.30;0.30;;;10.50;99.90;;;;;;5065553;23;20051;-75
2021/10/22 02:40:39;;;;;;;0.15;0.15;;;10.50;99.90;;;;;;5033737;28;20064;-75
2021/10/22 02:43:05;;;;;;;0.20;0.20;;;10.50;99.90;;;;;;5051601;28;20049;-75
2021/10/22 02:45:31;;;;;;;0.20;0.20;;;10.50;99.90;;;;;;5033468;28;20495;-75
2021/10/22 02:47:57;;;;;;;0.10;0.10;;;10.40;99.90;;;;;;5051513;28;20052;-75
2021/10/22 02:50:23;;;;;;;0.20;0.20;;;10.30;99.90;;;;;;5051532;28;20442;-75
2021/10/22 02:52:49;;;;;;;0.10;0.10;;;10.20;99.90;;;;;;5033789;28;20595;-75
2021/10/22 02:55:15;;;;;;;0.38;0.30;;;10.20;99.90;;;;;;5033538;28;20017;-75
2021/10/22 02:57:41;;;;;;;0.20;0.20;;;10.10;99.90;;;;;;5017012;28;20029;-75
2021/10/22 03:00:08;;;;;;;0.20;0.20;;;10.10;99.90;;;;;;5017115;28;20017;-75
2021/10/22 03:02:34;;;;;;;0.98;0.38;;;9.90;99.90;;;;;;5051459;28;20040;-75
2021/10/22 03:05:00;;;;;;;0.10;0.10;;;9.90;99.90;;;;;;5051259;28;20021;-75
2021/10/22 03:07:25;;;;;;;0.10;0.10;;;10.00;99.90;;;;;;5033649;28;20021;-75
2021/10/22 03:09:51;;;;;;;0.17;0.17;;;9.90;99.90;;;;;;5033339;28;20029;-75
2021/10/22 03:12:17;;;;;;;0.20;0.20;;;10.00;99.90;;;;;;5051168;28;20017;-74
2021/10/22 03:14:43;;;;;;;0.20;0.20;;;10.00;99.90;;;;;;5051181;28;20052;-75
2021/10/22 03:17:08;;;;;;;0.20;0.20;;;9.90;99.90;;;;;;5051353;28;20052;-75
2021/10/22 03:19:34;;;;;;;0.20;0.20;;;10.00;99.90;;;;;;5051235;28;20055;-75
2021/10/22 03:22:00;;;;;;;0.20;0.20;;;10.00;99.90;;;;;;5051265;28;20028;-75
2021/10/22 03:24:25;;;;;;;0.20;0.20;;;10.10;99.90;;;;;;5033349;28;20031;-75
2021/10/22 03:26:51;;;;;;;0.20;0.20;;;10.10;99.90;;;;;;5033239;28;20545;-75
2021/10/22 03:29:19;;;;;;;0.20;0.20;;;10.00;99.90;;;;;;5051163;28;20082;-75
2021/10/22 03:31:44;;;;;;;0.20;0.20;;;10.00;99.90;;;;;;5033364;28;20060;-75
2021/10/22 03:34:10;;;;;;;0.20;0.20;;;10.10;99.90;;;;;;5053724;28;20440;-75
2021/10/22 03:36:37;;;;;;;0.13;0.13;;;10.00;99.90;;;;;;5054763;28;20492;-75
2021/10/22 03:39:04;;;;;;;0.20;0.20;;;10.10;99.90;;;;;;5054652;28;20029;-75
2021/10/22 03:41:29;;;;;;;0.73;0.73;;;10.10;99.90;;;;;;5054634;28;20017;-75
2021/10/22 03:43:55;;;;;;;0.10;0.10;;;9.90;99.90;;;;;;5036902;28;20040;-75
2021/10/22 03:46:21;;;;;;;0.20;0.20;;;9.90;99.90;;;;;;5036683;28;20029;-75
2021/10/22 03:48:47;;;;;;;0.50;0.50;;;10.10;99.90;;;;;;5054870;28;20029;-75
2021/10/22 03:51:13;;;;;;;0.20;0.20;;;10.00;99.90;;;;;;5054688;28;20074;-75
2021/10/22 03:53:39;;;;;;;0.20;0.20;;;9.90;99.90;;;;;;5054448;28;20020;-75
2021/10/22 03:56:05;;;;;;;0.20;0.20;;;9.90;99.90;;;;;;5036279;28;20443;-75
2021/10/22 03:58:32;;;;;;;0.20;0.20;;;9.80;99.90;;;;;;5036588;28;20021;-75
2021/10/22 04:00:57;;;;;;;0.20;0.20;;;9.90;99.90;;;;;;5054403;28;20071;-75
2021/10/22 04:03:23;;;;;;;0.20;0.20;;;9.80;99.90;;;;;;5036404;28;20469;-75
2021/10/22 04:05:49;;;;;;;0.10;0.10;;;9.80;99.90;;;;;;5054095;28;20025;-75
2021/10/22 04:08:16;;;;;;;0.20;0.20;;;9.80;99.90;;;;;;5054158;28;20056;-75
2021/10/22 04:10:43;;;;;;;0.10;0.10;;;10.00;99.90;;;;;;5036119;28;20036;-75
2021/10/22 04:13:12;;;;;;;0.20;0.20;;;10.20;99.90;;;;;;5036199;28;20495;-76
2021/10/22 04:15:43;;;;;;;0.20;0.20;;;10.30;99.90;;;;;;5036041;28;20063;-75
2021/10/22 04:18:10;;;;;;;0.20;0.20;;;10.20;99.90;;;;;;5054164;28;20051;-75
2021/10/22 04:20:36;;;;;;;0.20;0.20;;;10.00;99.90;;;;;;5053986;28;20017;-75
2021/10/22 04:23:01;;;;;;;0.20;0.20;;;10.00;99.90;;;;;;5053912;28;20503;-75
2021/10/22 04:25:28;;;;;;;0.20;0.20;;;10.00;99.90;;;;;;5053962;28;20036;-75
2021/10/22 04:27:54;;;;;;;0.20;0.20;;;10.10;99.90;;;;;;5035995;28;20021;-75
2021/10/22 04:30:21;;;;;;;0.20;0.20;;;10.20;99.90;;;;;;5053832;28;20021;-75
2021/10/22 04:32:48;;;;;;;0.20;0.20;;;10.20;99.90;;;;;;5053843;28;20392;-75
2021/10/22 04:35:14;;;;;;;0.30;0.30;;;10.10;99.90;;;;;;5019100;28;20028;-75
2021/10/22 04:40:32;;;;;;;0.20;0.20;;;10.00;99.90;;;;;;5053628;28;20070;-75
2021/10/22 04:43:06;;;;;;;0.20;0.20;;;10.20;99.90;;;;;;5053697;28;20048;-75
2021/10/22 04:45:38;;;;;;;0.10;0.10;;;10.40;99.90;;;;;;5052788;28;20474;-75
2021/10/22 04:48:05;;;;;;;0.20;0.20;;;10.50;99.90;;;;;;5053275;28;20480;-75
2021/10/22 04:50:32;;;;;;;0.10;0.10;;;10.70;99.90;;;;;;5035580;28;20079;-75
2021/10/22 04:52:59;;;;;;;0.30;0.30;;;10.60;99.90;;;;;;5053249;28;20025;-75
2021/10/22 04:55:26;;;;;;;0.10;0.10;;;10.60;99.90;;;;;;5035301;28;20021;-75
2021/10/22 04:57:53;;;;;;;0.10;0.10;;;10.80;99.90;;;;;;5035439;28;20020;-75
2021/10/22 05:00:20;;;;;;;0.13;0.13;;;10.70;99.90;;;;;;5035123;28;20099;-75
2021/10/22 05:02:48;;;;;;;0.17;0.17;;;10.60;99.90;;;;;;5035180;28;20082;-75
2021/10/22 05:05:14;;;;;;;0.10;0.10;;;10.60;99.90;;;;;;5052924;28;20100;-75
2021/10/22 05:07:41;;;;;;;0.20;0.20;;;10.80;99.90;;;;;;5053024;28;20055;-76
2021/10/22 05:10:07;;;;;;;0.20;0.20;;;10.90;99.90;;;;;;5052866;28;20366;-75
2021/10/22 05:12:34;;;;;;;0.20;0.20;;;10.80;99.90;;;;;;5035021;28;20033;-76
2021/10/22 05:15:00;;;;;;;0.20;0.20;;;10.90;99.90;;;;;;5035399;28;20032;-75
2021/10/22 05:17:26;;;;;;;0.10;0.10;;;10.70;99.90;;;;;;5034878;28;20069;-75
2021/10/22 05:19:53;;;;;;;0.10;0.10;;;10.70;99.90;;;;;;5052743;28;20028;-75
2021/10/22 05:22:19;;;;;;;0.28;0.28;;;10.70;99.90;;;;;;5052992;28;20037;-75
2021/10/22 05:24:45;;;;;;;0.20;0.20;;;10.60;99.90;;;;;;5034796;28;20112;-75
2021/10/22 05:27:11;;;;;;;0.20;0.20;;;10.60;99.90;;;;;;5052686;28;20101;-75
2021/10/22 05:29:36;;;;;;;0.20;0.20;;;10.70;99.90;;;;;;5052544;28;20102;-76
2021/10/22 05:32:03;;;;;;;0.20;0.20;;;10.80;99.90;;;;;;5034638;28;20100;-75
2021/10/22 05:34:28;;;;;;;0.10;0.10;;;10.70;99.90;;;;;;5034318;28;20028;-75
2021/10/22 05:36:54;;;;;;;0.20;0.20;;;10.80;99.90;;;;;;5034165;28;20033;-75
2021/10/22 05:39:20;;;;;;;0.10;0.10;;;10.90;99.90;;;;;;5052120;28;20021;-75
2021/10/22 05:41:48;;;;;;;0.20;0.20;;;10.80;99.90;;;;;;5018094;28;20053;-75
2021/10/22 05:44:18;;;;;;;0.10;0.10;;;10.80;99.90;;;;;;5052274;28;20094;-75
2021/10/22 05:46:45;;;;;;;0.13;0.13;;;10.80;99.90;;;;;;5052063;28;20040;-75
2021/10/22 05:49:11;;;;;;;0.85;0.73;;;10.70;99.90;;;;;;5051358;28;20025;-75
2021/10/22 05:51:37;;;;;;;0.20;0.20;;;10.50;99.90;;;;;;5042556;28;20049;-75
2021/10/22 05:54:03;;;;;;;0.30;0.30;;;10.40;99.90;;;;;;5039010;28;20032;-75
2021/10/22 05:56:29;;;;;;;0.20;0.20;;;10.30;99.90;;;;;;5040218;28;20017;-76
2021/10/22 05:58:55;;;;;;;0.20;0.20;;;10.30;99.90;;;;;;5064437;28;20066;-75
2021/10/22 06:01:25;;;;;;;0.10;0.10;;;10.10;99.90;;;;;;5051870;28;20028;-75
2021/10/22 06:03:51;;;;;;;0.10;0.10;;;10.30;99.90;;;;;;5024179;28;20028;-75
2021/10/22 06:06:17;;;;;;;0.20;0.20;;;10.10;99.90;;;;;;5050647;28;20020;-75
2021/10/22 06:08:43;;;;;;;0.20;0.20;;;10.10;99.90;;;;;;5051726;28;20044;-75
2021/10/22 06:11:12;;;;;;;0.20;0.20;;;10.20;99.90;;;;;;5033893;28;20044;-75
2021/10/22 06:13:39;;;;;;;0.20;0.20;;;10.30;99.90;;;;;;5034124;28;20099;-76
2021/10/22 06:16:06;;;;;;;0.10;0.10;;;10.30;99.90;;;;;;5051660;28;20028;-75
2021/10/22 06:18:33;;;;;;;0.20;0.20;;;10.30;99.90;;;;;;5017384;28;20032;-76
2021/10/22 06:21:08;;;;;;;0.20;0.20;;;10.30;99.90;;;;;;5051754;28;20017;-75
2021/10/22 06:26:18;;;;;;;0.10;0.10;;;10.20;99.90;;;;;;5048935;28;20045;-75
2021/10/22 06:28:44;;;;;;;0.10;0.10;;;10.20;99.90;;;;;;5054929;28;20110;-75
2021/10/22 06:31:14;;;;;;;0.55;0.55;;;10.20;99.90;;;;;;5053365;28;20017;-76
2021/10/22 06:33:40;;;;;;;1.35;0.82;;;10.40;99.90;;;;;;5017356;28;20025;-76
2021/10/22 06:36:09;;;;;;;0.10;0.10;;;10.20;99.90;;;;;;5035309;28;20029;-75
2021/10/22 06:38:35;;;;;;;0.20;0.20;;;10.10;99.90;;;;;;5050658;28;20105;-75
2021/10/22 06:41:02;;;;;;;0.40;0.40;;;10.00;99.90;;;;;;5069128;28;20553;-75
2021/10/22 06:43:28;;;;;;;10.32;3.30;;;10.10;99.90;;;;;;5033736;28;20491;-75
2021/10/22 06:45:54;;;;;;;0.13;0.13;;;10.00;99.90;;;;;;5023937;28;20028;-75
2021/10/22 06:48:20;;;;;;;3.70;1.55;;;9.90;99.90;;;;;;5053713;28;20109;-75
2021/10/22 06:50:46;;;;;;;0.10;0.10;;;9.80;99.90;;;;;;5071611;28;20029;-75
2021/10/22 06:53:13;;;;;;;0.22;0.22;;;9.50;99.90;;;;;;5071262;28;20124;-75
2021/10/22 06:55:39;;;;;;;0.15;0.15;;;9.30;99.90;;;;;;5053005;28;20383;-76
2021/10/22 06:58:06;;;;;;;1.30;0.77;;;9.20;99.90;;;;;;5050876;28;20021;-76
2021/10/22 07:00:33;;;;;;;0.57;0.57;;;9.40;99.90;;;;;;5049672;28;20032;-75
2021/10/22 07:02:59;;;;;;;0.13;0.13;;;9.40;99.90;;;;;;5033295;28;20104;-76
2021/10/22 07:05:36;;;;;;;0.38;0.30;;;9.30;99.90;;;;;;5050897;28;20036;-75
2021/10/22 07:08:03;;;;;;;0.43;0.43;;;9.20;99.90;;;;;;5034062;28;20384;-75
2021/10/22 07:10:30;;;;;;;0.20;0.20;;;9.30;99.90;;;;;;5055391;28;20029;-75
2021/10/22 07:12:57;;;;;;;0.20;0.20;;;9.30;99.90;;;;;;5055544;28;20032;-75
2021/10/22 07:15:23;;;;;;;0.40;0.40;;;9.30;99.90;;;;;;5074724;28;20495;-75
2021/10/22 07:17:49;;;;;;;0.10;0.10;;;9.20;99.90;;;;;;5048785;28;20021;-76
2021/10/22 07:20:15;;;;;;;0.15;0.15;;;9.20;99.90;;;;;;5035906;28;20071;-76
2021/10/22 07:25:15;;;;;;;0.17;0.17;;;9.30;99.90;;;;;;5055348;28;20456;-76
2021/10/22 07:27:40;;;;;;;0.52;0.52;;;9.40;99.90;;;;;;5068729;28;20017;-76
2021/10/22 07:30:07;;;;;;;0.13;0.13;;;9.40;99.90;;;;;;5053047;28;20027;-76
2021/10/22 07:32:33;;;;;;;0.20;0.20;;;9.30;99.90;;;;;;5061726;28;20135;-76
2021/10/22 07:34:58;;;;;;;0.10;0.10;;;9.30;99.90;;;;;;5046443;28;20108;-76
2021/10/22 07:37:24;;;;;;;0.43;0.43;;;9.40;99.90;;;;;;5028489;28;20812;-76
2021/10/22 07:39:51;;;;;;;0.20;0.20;;;9.40;99.90;;;;;;5046328;28;20028;-77
2021/10/22 07:42:17;;;;;;;0.10;0.10;;;9.30;99.90;;;;;;5044114;28;20025;-77
2021/10/22 07:44:43;;;;;;;0.13;0.13;;;9.40;99.90;;;;;;5063328;28;20036;-76
2021/10/22 07:47:09;;;;;;;0.17;0.17;;;9.50;99.90;;;;;;5061928;28;20431;-77
2021/10/22 07:49:35;;;;;;;0.73;0.52;;;9.40;99.90;;;;;;5049318;28;20028;-76
2021/10/22 07:52:01;;;;;;;0.10;0.10;;;9.50;99.90;;;;;;5059002;28;20668;-77
2021/10/22 07:54:27;;;;;;;0.20;0.20;;;9.50;99.90;;;;;;5040870;28;20033;-76
2021/10/22 07:56:53;;;;;;;0.10;0.10;;;9.40;99.90;;;;;;5065510;28;20105;-77
2021/10/22 07:59:18;;;;;;;0.20;0.20;;;9.50;99.90;;;;;;5063160;28;20071;-77
2021/10/22 08:01:44;;;;;;;0.25;0.25;;;9.60;99.90;;;;;;5068162;28;20029;-76
2021/10/22 08:04:11;;;;;;;0.80;0.80;;;9.60;99.90;;;;;;5045354;28;20033;-76
2021/10/22 08:06:38;;;;;;;0.85;0.85;;;9.50;99.90;;;;;;5027832;28;20024;-77
2021/10/22 08:09:05;;;;;;;0.15;0.15;;;9.40;99.90;;;;;;5026095;28;20032;-76
2021/10/22 08:11:31;;;;;;;0.20;0.20;;;9.40;99.90;;;;;;5044758;28;20070;-76
2021/10/22 08:13:58;;;;;;;0.28;0.28;;;9.40;99.90;;;;;;5055428;28;20029;-76
2021/10/22 08:16:24;;;;;;;0.20;0.20;;;9.50;99.90;;;;;;5045112;28;20028;-76
2021/10/22 08:18:49;;;;;;;0.13;0.13;;;9.40;99.90;;;;;;5067126;28;20742;-75
2021/10/22 08:23:42;;;;;;;0.47;0.47;;;9.40;99.90;;;;;;5055470;28;20477;-76
2021/10/22 08:26:07;;;;;;;0.13;0.13;;;9.10;99.90;;;;;;5059323;28;20017;-76
2021/10/22 08:28:33;;;;;;;0.20;0.20;;;9.00;99.90;;;;;;5047275;28;20408;-77
2021/10/22 08:31:00;;;;;;;0.20;0.20;;;9.00;99.90;;;;;;5059591;28;20125;-75
2021/10/22 08:33:26;;;;;;;0.13;0.13;;;8.90;99.90;;;;;;5043690;28;20414;-74
2021/10/22 08:35:57;;;;;;;0.20;0.20;;;8.90;99.90;;;;;;5027703;28;20161;-76
2021/10/22 08:38:25;;;;;;;0.20;0.20;;;8.90;99.90;;;;;;5063414;28;20025;-76
2021/10/22 08:40:54;;;;;;;0.30;0.30;;;9.00;99.90;;;;;;5062048;28;20084;-76
2021/10/22 08:43:20;;;;;;;0.20;0.20;;;9.10;99.90;;;;;;5057015;28;20497;-74
2021/10/22 08:45:48;;;;;;;0.20;0.20;;;9.10;99.90;;;;;;5051838;28;20392;-74
2021/10/22 08:48:14;;;;;;;0.20;0.20;;;9.10;99.90;;;;;;5042964;28;20096;-74
2021/10/22 08:50:39;;;;;;;0.20;0.20;;;9.30;99.90;;;;;;5037556;28;20025;-74
2021/10/22 08:53:06;;;;;;;0.20;0.20;;;9.50;99.90;;;;;;5051925;28;20029;-74
2021/10/22 08:55:32;;;;;;;0.20;0.20;;;9.50;99.90;;;;;;5052742;28;20039;-73
2021/10/22 08:58:00;;;;;;;0.17;0.17;;;9.50;99.90;;;;;;5067423;28;20119;-74
2021/10/22 09:00:26;;;;;;;0.20;0.20;;;9.50;99.90;;;;;;5050888;28;20021;-73
2021/10/22 09:02:52;;;;;;;0.10;0.10;;;9.70;99.90;;;;;;5051621;28;20389;-75
2021/10/22 09:05:20;;;;;;;0.20;0.20;;;9.70;99.90;;;;;;5063380;28;20515;-73
2021/10/22 09:07:55;;;;;;;0.13;0.13;;;9.80;99.90;;;;;;5047720;28;20103;-75
2021/10/22 09:10:22;;;;;;;0.10;0.10;;;9.40;99.90;;;;;;5056349;28;20021;-75
2021/10/22 09:12:52;;;;;;;0.30;0.30;;;9.50;99.90;;;;;;5043410;28;20541;-76
2021/10/22 09:15:25;;;;;;;0.88;0.65;;;9.20;99.90;;;;;;5056384;28;20028;-76
2021/10/22 09:17:53;;;;;;;0.15;0.15;;;9.10;99.90;;;;;;5056384;28;20033;-76
2021/10/22 09:20:19;;;;;;;0.20;0.20;;;9.10;99.90;;;;;;5046907;28;20428;-75
2021/10/22 09:22:50;;;;;;;0.20;0.20;;;9.10;99.90;;;;;;5063440;28;20028;-76
2021/10/22 09:25:21;;;;;;;0.20;0.20;;;9.30;99.90;;;;;;5030921;28;20021;-76
2021/10/22 09:27:57;;;;;;;0.20;0.20;;;9.40;99.90;;;;;;5052166;28;20106;-76
2021/10/22 09:30:23;;;;;;;0.22;0.22;;;9.20;99.90;;;;;;5029279;28;20020;-75
2021/10/22 09:32:50;;;;;;;0.20;0.20;;;9.10;99.90;;;;;;5058927;28;20025;-76
2021/10/22 09:35:44;;;;;;;0.20;0.20;;;9.10;99.90;;;;;;5049732;28;20043;-75
2021/10/22 09:38:17;;;;;;;0.20;0.20;;;9.20;99.90;;;;;;5048594;28;20409;-74
2021/10/22 09:40:45;;;;;;;0.20;0.20;;;9.30;99.90;;;;;;5060646;28;20043;-76
2021/10/22 09:43:13;;;;;;;0.20;0.20;;;9.40;99.90;;;;;;5025850;28;20135;-75
2021/10/22 09:45:39;;;;;;;0.20;0.20;;;9.50;99.90;;;;;;5048848;28;20025;-75
2021/10/22 09:48:26;;;;;;;0.20;0.20;;;9.60;99.90;;;;;;5048246;28;20373;-75
2021/10/22 09:50:55;;;;;;;0.20;0.20;;;9.60;99.90;;;;;;5038536;28;20059;-75
2021/10/22 09:53:28;;;;;;;0.20;0.20;;;9.60;99.90;;;;;;5058058;28;20047;-75
2021/10/22 09:56:02;;;;;;;0.10;0.10;;;9.30;99.90;;;;;;5041902;28;20108;-75
2021/10/22 09:58:29;;;;;;;0.45;0.45;;;9.20;99.90;;;;;;5057711;28;20423;-75
2021/10/22 10:01:06;;;;;;;0.20;0.20;;;9.20;99.90;;;;;;5061032;28;20017;-75
2021/10/22 10:03:36;;;;;;;0.10;0.10;;;9.20;99.90;;;;;;5026816;28;20021;-75
2021/10/22 10:06:04;;;;;;;0.17;0.17;;;9.30;99.90;;;;;;5058912;28;20059;-75
2021/10/22 10:08:31;;;;;;;0.17;0.17;;;9.20;99.90;;;;;;5041326;28;20031;-75
2021/10/22 10:10:57;;;;;;;0.47;0.47;;;9.40;99.90;;;;;;5056332;28;20017;-75
2021/10/22 10:13:23;;;;;;;0.10;0.10;;;9.20;99.90;;;;;;5045934;28;20028;-75
2021/10/22 10:15:49;;;;;;;0.20;0.20;;;9.10;99.90;;;;;;5033870;28;20024;-75
2021/10/22 10:18:18;;;;;;;0.20;0.20;;;9.20;99.90;;;;;;5059152;28;20503;-75
2021/10/22 10:20:48;;;;;;;0.30;0.30;;;9.30;99.90;;;;;;5053586;28;20329;-75
2021/10/22 10:23:18;;;;;;;0.20;0.20;;;9.20;99.90;;;;;;5043650;28;20028;-74
2021/10/22 10:25:44;;;;;;;0.40;0.40;;;8.90;99.90;;;;;;5039019;28;20146;-75
2021/10/22 10:28:10;;;;;;;0.30;0.30;;;9.00;99.90;;;;;;5055110;28;20108;-75
2021/10/22 10:30:41;;;;;;;0.30;0.30;;;9.20;99.90;;;;;;5043657;28;20689;-74
2021/10/22 10:33:28;;;;;;;0.20;0.20;;;8.90;99.90;;;;;;5053986;28;20029;-74
2021/10/22 10:35:54;;;;;;;0.50;0.50;;;8.90;99.90;;;;;;5053320;28;20044;-74
2021/10/22 10:38:42;;;;;;;0.20;0.20;;;8.80;99.90;;;;;;5063896;28;20033;-74
2021/10/22 10:41:18;;;;;;;0.30;0.30;;;8.90;99.90;;;;;;5053952;28;20477;-75
2021/10/22 10:43:45;;;;;;;0.22;0.22;;;9.00;99.90;;;;;;5039630;28;20025;-75
2021/10/22 10:46:33;;;;;;;1.27;1.27;;;9.00;99.90;;;;;;5059236;28;20477;-77
2021/10/22 10:48:59;;;;;;;0.10;0.10;;;8.80;99.90;;;;;;5062824;28;20526;-75
2021/10/22 10:51:40;;;;;;;0.40;0.40;;;8.90;99.90;;;;;;5056991;28;20024;-75
2021/10/22 10:54:06;;;;;;;0.20;0.20;;;9.00;99.90;;;;;;5029650;28;20507;-75
2021/10/22 10:56:38;;;;;;;0.10;0.10;;;9.00;99.90;;;;;;5062013;28;20033;-74
2021/10/22 10:59:04;;;;;;;0.20;0.20;;;8.90;99.90;;;;;;5064944;28;20055;-75
2021/10/22 11:01:34;;;;;;;0.20;0.20;;;9.00;99.90;;;;;;5059054;28;20052;-75
2021/10/22 11:04:02;;;;;;;0.17;0.17;;;9.00;99.90;;;;;;5055559;28;20052;-74
2021/10/22 11:06:42;;;;;;;0.20;0.20;;;9.20;99.90;;;;;;5062293;28;20104;-75
2021/10/22 11:09:07;;;;;;;0.30;0.30;;;9.30;99.90;;;;;;5031221;28;20545;-75
2021/10/22 11:11:38;;;;;;;0.20;0.20;;;9.10;99.90;;;;;;5060468;28;20108;-75
2021/10/22 11:14:04;;;;;;;0.20;0.20;;;8.90;99.90;;;;;;5045849;28;20409;-75
2021/10/22 11:19:10;;;;;;;0.20;0.20;;;8.90;99.90;;;;;;5060853;28;20025;-75
2021/10/22 11:21:41;;;;;;;0.20;0.20;;;8.60;99.90;;;;;;5042772;28;20451;-76
2021/10/22 11:24:12;;;;;;;0.28;0.28;;;8.90;99.90;;;;;;5041973;28;20020;-76
2021/10/22 11:26:38;;;;;;;0.57;0.52;;;9.30;99.90;;;;;;5066676;28;20091;-75
2021/10/22 11:29:18;;;;;;;0.20;0.20;;;9.60;99.90;;;;;;5065706;28;20494;-75
2021/10/22 11:32:11;;;;;;;1.20;0.30;;;9.60;99.90;;;;;;5055548;28;20392;-75
2021/10/22 11:34:40;;;;;;;0.68;0.43;;;9.60;99.90;;;;;;5046121;28;20119;-75
2021/10/22 11:37:15;;;;;;;0.20;0.20;;;9.90;99.90;;;;;;5065023;28;20056;-75
2021/10/22 11:39:56;;;;;;;0.85;0.85;;;9.80;99.90;;;;;;5040653;28;20036;-75
2021/10/22 11:42:28;;;;;;;0.20;0.20;;;9.90;99.90;;;;;;5047945;28;20029;-75
2021/10/22 11:45:03;;;;;;;1.63;0.28;;;9.90;99.90;;;;;;5050522;28;20020;-75
2021/10/22 11:47:41;;;;;;;0.20;0.20;;;10.00;99.90;;;;;;5048825;28;20021;-75
2021/10/22 11:50:08;;;;;;;0.20;0.20;;;9.80;99.90;;;;;;5052047;28;20480;-75
2021/10/22 11:52:33;;;;;;;1.45;1.02;;;9.80;99.90;;;;;;5043196;28;20025;-75
2021/10/22 11:55:00;;;;;;;1.58;1.08;;;9.40;99.90;;;;;;5072270;28;20082;-75
2021/10/22 11:57:26;;;;;;;0.20;0.20;;;9.10;99.90;;;;;;5061970;28;20485;-75
2021/10/22 11:59:55;;;;;;;0.20;0.20;;;9.20;99.90;;;;;;5061435;28;20127;-75
2021/10/22 12:02:26;;;;;;;0.10;0.10;;;9.60;99.90;;;;;;5057921;28;20499;-75
2021/10/22 12:04:56;;;;;;;0.35;0.28;;;10.00;99.90;;;;;;5071805;28;20056;-75
2021/10/22 12:07:22;;;;;;;0.22;0.22;;;10.00;99.90;;;;;;5052465;28;20618;-75
2021/10/22 12:09:51;;;;;;;0.10;0.10;;;9.90;99.90;;;;;;5057849;28;20128;-75
2021/10/22 12:12:17;;;;;;;0.30;0.30;;;9.80;99.90;;;;;;5061564;28;20361;-75
2021/10/22 12:14:46;;;;;;;0.30;0.30;;;9.90;99.90;;;;;;5039991;28;20024;-75
2021/10/22 12:17:17;;;;;;;2.00;0.55;;;9.60;99.90;;;;;;5058957;28;20605;-75
2021/10/22 12:19:44;;;;;;;7.50;0.82;;;9.50;99.90;;;;;;5064473;28;20528;-75
2021/10/22 12:22:12;;;;;;;0.20;0.20;;;9.40;99.90;;;;;;5042989;28;20793;-75
2021/10/22 12:24:43;;;;;;;0.85;0.85;;;9.60;99.90;;;;;;5043590;28;20162;-75
2021/10/22 12:27:10;;;;;;;0.60;0.60;;;9.70;99.90;;;;;;5057784;28;20108;-74
2021/10/22 12:30:08;;;;;;;0.20;0.20;;;9.80;99.90;;;;;;5067538;28;20510;-75
2021/10/22 12:32:43;;;;;;;0.70;0.55;;;9.80;99.90;;;;;;5024788;28;20036;-75
2021/10/22 12:35:18;;;;;;;0.20;0.20;;;9.80;99.90;;;;;;5067519;28;20106;-75
2021/10/22 12:37:56;;;;;;;0.20;0.20;;;10.10;99.90;;;;;;5058907;28;20496;-75
2021/10/22 12:40:35;;;;;;;0.30;0.30;;;10.20;99.90;;;;;;5049555;28;20028;-75
2021/10/22 12:43:23;;;;;;;0.20;0.20;;;10.20;99.90;;;;;;5035329;28;20021;-75
2021/10/22 12:45:50;;;;;;;1.63;0.77;;;10.10;99.90;;;;;;5057022;28;20033;-75
2021/10/22 12:48:21;;;;;;;0.30;0.30;;;10.30;99.90;;;;;;5061172;28;20369;-75
2021/10/22 12:50:47;;;;;;;0.88;0.40;;;10.50;99.90;;;;;;5025504;28;20100;-75
2021/10/22 12:53:19;;;;;;;0.20;0.20;;;10.70;99.90;;;;;;5047511;28;20481;-75
2021/10/22 12:55:57;;;;;;;0.20;0.20;;;10.40;99.90;;;;;;5066472;28;20438;-75
2021/10/22 12:58:24;;;;;;;0.55;0.22;;;10.30;99.90;;;;;;5040841;28;20021;-75
2021/10/22 13:01:10;;;;;;;0.32;0.32;;;10.30;99.90;;;;;;5042658;28;20032;-75
2021/10/22 13:03:38;;;;;;;0.20;0.20;;;10.50;99.90;;;;;;5039322;28;20111;-75
2021/10/22 13:06:29;;;;;;;1.98;1.17;;;10.60;99.90;;;;;;5055781;28;20073;-75
2021/10/22 13:14:19;;;;;;;0.88;0.60;;;11.20;99.90;;;;;;5060730;28;20025;-74